createdAt,value
2018-03-31T00:01:16.192Z,3.70
2018-03-31T00:03:42.522Z,3.80
2018-03-31T00:06:08.854Z,3.30
2018-03-31T00:08:35.178Z,3.17
2018-03-31T00:11:01.522Z,3.53
2018-03-31T00:13:27.846Z,3.20
2018-03-31T00:15:54.178Z,3.30
2018-03-31T00:18:20.509Z,3.30
2018-03-31T00:20:46.854Z,3.27
2018-03-31T00:23:13.183Z,3.40
2018-03-31T00:25:39.515Z,3.40
2018-03-31T00:28:05.862Z,3.60
2018-03-31T00:30:32.182Z,3.00
2018-03-31T00:32:58.520Z,3.20
2018-03-31T00:35:24.895Z,3.67
2018-03-31T00:37:51.231Z,3.33
2018-03-31T00:40:17.558Z,3.60
2018-03-31T00:42:43.891Z,4.17
2018-03-31T00:45:10.230Z,3.30
2018-03-31T00:47:36.555Z,3.73
2018-03-31T00:50:02.890Z,3.77
2018-03-31T00:52:29.212Z,3.80
2018-03-31T00:54:55.546Z,3.43
2018-03-31T00:57:21.882Z,3.60
2018-03-31T00:59:48.215Z,3.97
2018-03-31T01:02:14.546Z,3.60
2018-03-31T01:04:40.871Z,3.47
2018-03-31T01:07:07.198Z,3.57
2018-03-31T01:09:33.536Z,3.63
2018-03-31T01:11:59.906Z,3.70
2018-03-31T01:14:26.234Z,3.37
2018-03-31T01:16:52.575Z,3.30
2018-03-31T01:19:18.895Z,3.17
2018-03-31T01:21:45.232Z,3.60
2018-03-31T01:24:11.554Z,3.57
2018-03-31T01:26:37.886Z,3.53
2018-03-31T01:29:04.255Z,3.50
2018-03-31T01:31:30.571Z,3.30
2018-03-31T01:33:56.902Z,3.53
2018-03-31T01:36:23.234Z,3.30
2018-03-31T01:38:49.582Z,3.20
2018-03-31T01:41:15.913Z,3.00
2018-03-31T01:43:42.272Z,3.60
2018-03-31T01:46:08.583Z,3.30
2018-03-31T01:48:34.915Z,3.37
2018-03-31T01:51:01.243Z,3.17
2018-03-31T01:53:27.571Z,3.50
2018-03-31T01:55:53.906Z,3.10
2018-03-31T01:58:20.239Z,3.50
2018-03-31T02:00:46.562Z,3.53
2018-03-31T02:03:12.890Z,3.50
2018-03-31T02:05:39.226Z,3.40
2018-03-31T02:08:05.567Z,3.43
2018-03-31T02:10:31.890Z,3.57
2018-03-31T02:12:58.226Z,3.73
2018-03-31T02:15:24.554Z,3.80
2018-03-31T02:17:50.875Z,3.40
2018-03-31T02:20:17.214Z,4.10
2018-03-31T02:22:43.538Z,4.67
2018-03-31T02:25:09.894Z,3.70
2018-03-31T02:27:36.222Z,3.90
2018-03-31T02:30:02.561Z,4.00
2018-03-31T02:32:28.887Z,3.77
2018-03-31T02:34:55.336Z,3.50
2018-03-31T02:37:21.680Z,3.83
2018-03-31T02:39:48.007Z,3.47
2018-03-31T02:42:14.344Z,4.47
2018-03-31T02:44:40.672Z,4.33
2018-03-31T02:47:06.995Z,4.10
2018-03-31T02:49:33.340Z,4.10
2018-03-31T02:51:59.668Z,3.80
2018-03-31T02:54:25.995Z,3.93
2018-03-31T02:56:52.327Z,4.13
2018-03-31T02:59:18.655Z,4.33
2018-03-31T03:01:45.043Z,4.57
2018-03-31T03:04:11.399Z,4.13
2018-03-31T03:06:37.727Z,3.93
2018-03-31T03:09:04.059Z,4.53
2018-03-31T03:11:30.386Z,4.27
2018-03-31T03:13:56.727Z,4.40
2018-03-31T03:16:23.054Z,4.30
2018-03-31T03:18:49.386Z,4.03
2018-03-31T03:21:15.726Z,4.23
2018-03-31T03:23:42.055Z,4.20
2018-03-31T03:26:08.394Z,4.43
2018-03-31T03:28:34.724Z,4.40
2018-03-31T03:31:01.054Z,4.37
2018-03-31T03:33:27.478Z,4.33
2018-03-31T03:35:53.803Z,4.37
2018-03-31T03:38:20.150Z,4.97
2018-03-31T03:40:46.479Z,4.23
2018-03-31T03:43:12.866Z,4.53
2018-03-31T03:45:39.177Z,5.03
2018-03-31T03:48:05.506Z,5.00
2018-03-31T03:50:31.847Z,5.30
2018-03-31T03:52:59.146Z,4.80
2018-03-31T03:55:25.474Z,4.77
2018-03-31T03:57:51.822Z,4.80
2018-03-31T04:00:18.134Z,5.47
2018-03-31T04:02:44.738Z,5.20
2018-03-31T04:05:11.062Z,6.13
2018-03-31T04:07:37.392Z,5.80
2018-03-31T04:10:03.723Z,5.80
2018-03-31T04:12:30.051Z,6.27
2018-03-31T04:14:56.386Z,5.90
2018-03-31T04:17:22.741Z,5.37
2018-03-31T04:19:49.110Z,5.20
2018-03-31T04:22:15.426Z,4.90
2018-03-31T04:24:41.754Z,4.70
2018-03-31T04:27:08.094Z,5.30
2018-03-31T04:29:34.419Z,5.33
2018-03-31T04:32:00.756Z,5.60
2018-03-31T04:34:27.082Z,5.73
2018-03-31T04:36:53.418Z,5.80
2018-03-31T04:39:19.754Z,5.47
2018-03-31T04:41:46.083Z,5.77
2018-03-31T04:44:12.413Z,5.27
2018-03-31T04:46:38.738Z,5.93
2018-03-31T04:49:05.126Z,5.67
2018-03-31T04:51:31.458Z,5.60
2018-03-31T04:53:57.787Z,6.17
2018-03-31T04:56:24.115Z,6.43
2018-03-31T04:58:50.450Z,6.17
2018-03-31T05:01:16.782Z,6.40
2018-03-31T05:03:43.139Z,6.23
2018-03-31T05:06:09.503Z,6.13
2018-03-31T05:08:35.830Z,6.00
2018-03-31T05:11:02.166Z,6.90
2018-03-31T05:13:28.502Z,6.43
2018-03-31T05:15:54.850Z,6.30
2018-03-31T05:18:21.174Z,6.77
2018-03-31T05:20:47.534Z,6.37
2018-03-31T05:23:13.863Z,7.17
2018-03-31T05:25:40.192Z,6.60
2018-03-31T05:28:06.531Z,6.83
2018-03-31T05:30:32.870Z,6.30
2018-03-31T05:32:59.194Z,7.07
2018-03-31T05:35:25.536Z,6.30
2018-03-31T05:37:51.876Z,6.27
2018-03-31T05:40:18.233Z,6.43
2018-03-31T05:42:44.559Z,7.10
2018-03-31T05:45:10.886Z,7.27
2018-03-31T05:47:37.215Z,6.80
2018-03-31T05:50:03.572Z,7.10
2018-03-31T05:52:29.913Z,6.70
2018-03-31T05:54:56.238Z,7.07
2018-03-31T05:57:22.572Z,7.07
2018-03-31T05:59:48.904Z,6.30
2018-03-31T06:02:15.231Z,6.83
2018-03-31T06:04:41.566Z,6.87
2018-03-31T06:07:07.919Z,6.63
2018-03-31T06:09:34.266Z,7.20
2018-03-31T06:12:00.599Z,7.10
2018-03-31T06:14:26.932Z,6.90
2018-03-31T06:16:53.262Z,7.50
2018-03-31T06:19:19.591Z,7.03
2018-03-31T06:21:45.970Z,6.80
2018-03-31T06:24:12.306Z,6.73
2018-03-31T06:26:38.643Z,6.53
2018-03-31T06:29:04.974Z,6.80
2018-03-31T06:31:31.308Z,7.00
2018-03-31T06:33:57.647Z,6.60
2018-03-31T06:36:23.979Z,6.20
2018-03-31T06:38:50.307Z,6.93
2018-03-31T06:41:16.641Z,6.90
2018-03-31T06:43:43.906Z,6.60
2018-03-31T06:46:10.239Z,6.10
2018-03-31T06:48:36.567Z,6.50
2018-03-31T06:51:02.902Z,6.47
2018-03-31T06:53:29.226Z,6.30
2018-03-31T06:55:55.707Z,6.33
2018-03-31T06:58:22.075Z,5.90
2018-03-31T07:00:48.388Z,6.50
2018-03-31T07:03:14.709Z,6.20
2018-03-31T07:05:41.044Z,6.37
2018-03-31T07:08:07.371Z,5.90
2018-03-31T07:10:33.738Z,6.90
2018-03-31T07:13:00.147Z,6.63
2018-03-31T07:15:26.460Z,6.90
2018-03-31T07:17:53.650Z,7.17
2018-03-31T07:20:20.020Z,6.67
2018-03-31T07:22:46.354Z,6.80
2018-03-31T07:25:12.694Z,6.73
2018-03-31T07:27:39.060Z,6.90
2018-03-31T07:30:05.392Z,7.10
2018-03-31T07:32:31.710Z,7.43
2018-03-31T07:34:58.063Z,6.80
2018-03-31T07:37:24.399Z,6.20
2018-03-31T07:39:50.730Z,7.00
2018-03-31T07:42:17.067Z,6.87
2018-03-31T07:44:43.394Z,6.40
2018-03-31T07:47:09.743Z,7.47
2018-03-31T07:49:36.067Z,6.30
2018-03-31T07:52:02.486Z,6.27
2018-03-31T07:54:28.774Z,6.00
2018-03-31T07:56:55.095Z,6.10
2018-03-31T07:59:21.657Z,6.40
2018-03-31T08:01:47.983Z,6.30
2018-03-31T08:04:14.311Z,6.07
2018-03-31T08:06:40.659Z,5.37
2018-03-31T08:09:06.991Z,6.00
2018-03-31T08:11:33.322Z,5.90
2018-03-31T08:14:05.667Z,6.33
2018-03-31T08:16:32.087Z,5.77
2018-03-31T08:18:58.418Z,5.70
2018-03-31T08:21:25.261Z,6.10
2018-03-31T08:23:51.577Z,6.10
2018-03-31T08:26:17.910Z,5.40
2018-03-31T08:28:44.230Z,5.50
2018-03-31T08:31:10.570Z,5.17
2018-03-31T08:33:36.899Z,5.30
2018-03-31T08:36:03.273Z,5.37
2018-03-31T08:38:29.654Z,4.83
2018-03-31T08:40:55.995Z,5.30
2018-03-31T08:43:23.330Z,4.90
2018-03-31T08:45:49.655Z,5.13
2018-03-31T08:48:16.109Z,4.70
2018-03-31T08:50:42.451Z,5.10
2018-03-31T08:53:08.774Z,4.70
2018-03-31T08:55:35.149Z,4.93
2018-03-31T08:58:01.454Z,4.70
2018-03-31T09:00:27.798Z,5.13
2018-03-31T09:02:54.127Z,4.40
2018-03-31T09:05:20.451Z,4.43
2018-03-31T09:07:46.778Z,4.07
2018-03-31T09:10:13.103Z,4.20
2018-03-31T09:12:39.450Z,4.43
2018-03-31T09:15:05.776Z,4.60
2018-03-31T09:17:32.106Z,4.60
2018-03-31T09:19:58.435Z,4.00
2018-03-31T09:22:24.769Z,3.60
2018-03-31T09:24:51.119Z,4.30
2018-03-31T09:27:17.455Z,4.40
2018-03-31T09:29:43.786Z,4.63
2018-03-31T09:32:10.148Z,4.13
2018-03-31T09:34:36.464Z,3.43
2018-03-31T09:37:02.798Z,2.80
2018-03-31T09:39:29.139Z,3.37
2018-03-31T09:41:55.470Z,2.97
2018-03-31T09:44:21.822Z,2.77
2018-03-31T09:46:48.154Z,3.10
2018-03-31T09:49:14.491Z,3.53
2018-03-31T09:51:40.810Z,2.80
2018-03-31T09:54:07.166Z,3.13
2018-03-31T09:56:33.526Z,3.50
2018-03-31T09:58:59.855Z,3.17
2018-03-31T10:01:26.208Z,3.03
2018-03-31T10:03:52.523Z,3.13
2018-03-31T10:06:18.853Z,2.20
2018-03-31T10:08:45.185Z,2.50
2018-03-31T10:11:11.514Z,3.00
2018-03-31T10:13:37.851Z,2.60
2018-03-31T10:16:04.234Z,2.77
2018-03-31T10:18:30.503Z,2.20
2018-03-31T10:20:56.831Z,2.40
2018-03-31T10:23:23.170Z,2.30
2018-03-31T10:25:49.510Z,3.07
2018-03-31T10:28:15.842Z,2.80
2018-03-31T10:30:42.171Z,2.80
2018-03-31T10:33:08.503Z,2.63
2018-03-31T10:35:34.842Z,2.80
2018-03-31T10:38:01.516Z,2.40
2018-03-31T10:40:27.845Z,2.73
2018-03-31T10:42:54.171Z,2.57
2018-03-31T10:45:20.504Z,2.23
2018-03-31T10:47:46.841Z,2.60
2018-03-31T10:50:13.170Z,2.33
2018-03-31T10:52:39.499Z,1.50
2018-03-31T10:55:05.835Z,1.50
2018-03-31T10:57:32.168Z,1.57
2018-03-31T10:59:58.506Z,1.50
2018-03-31T11:02:24.842Z,1.60
2018-03-31T11:04:51.175Z,1.80
2018-03-31T11:07:17.505Z,1.67
2018-03-31T11:09:43.856Z,1.40
2018-03-31T11:12:10.169Z,1.50
2018-03-31T11:14:36.494Z,1.40
2018-03-31T11:17:02.866Z,1.90
2018-03-31T11:19:29.208Z,1.60
2018-03-31T11:21:55.526Z,2.00
2018-03-31T11:30:21.846Z,2.10
2018-03-31T11:32:48.182Z,2.00
2018-03-31T11:35:14.507Z,2.33
2018-03-31T11:37:40.834Z,2.20
2018-03-31T11:40:07.176Z,2.23
2018-03-31T11:42:33.498Z,1.93
2018-03-31T11:44:59.837Z,2.33
2018-03-31T11:47:26.171Z,2.40
2018-03-31T11:49:52.514Z,2.30
2018-03-31T11:52:18.890Z,2.20
2018-03-31T11:54:45.190Z,2.20
2018-03-31T11:57:11.862Z,2.50
2018-03-31T11:59:38.195Z,2.43
2018-03-31T12:02:04.518Z,2.30
2018-03-31T12:04:30.852Z,2.20
2018-03-31T12:06:57.231Z,2.17
2018-03-31T12:09:23.543Z,2.20
2018-03-31T12:11:49.870Z,2.43
2018-03-31T12:14:16.194Z,2.40
2018-03-31T12:16:44.434Z,2.37
2018-03-31T12:19:10.800Z,2.20
2018-03-31T12:21:37.131Z,2.30
2018-03-31T12:24:03.478Z,2.37
2018-03-31T12:26:29.804Z,2.10
2018-03-31T12:28:56.140Z,1.73
2018-03-31T12:31:22.472Z,1.80
2018-03-31T12:33:48.839Z,1.73
2018-03-31T12:36:15.160Z,1.50
2018-03-31T12:38:41.507Z,1.70
2018-03-31T12:41:07.846Z,1.43
2018-03-31T12:43:34.180Z,1.50
2018-03-31T12:46:00.511Z,1.20
2018-03-31T12:48:26.834Z,1.20
2018-03-31T12:50:53.158Z,1.20
2018-03-31T12:53:19.492Z,1.30
2018-03-31T12:55:45.823Z,1.33
2018-03-31T12:58:12.162Z,1.40
2018-03-31T13:00:38.486Z,1.60
2018-03-31T13:03:04.822Z,1.60
2018-03-31T13:05:31.155Z,1.10
2018-03-31T13:07:57.488Z,1.33
2018-03-31T13:10:23.815Z,1.60
2018-03-31T13:12:50.154Z,11.83
2018-03-31T13:15:16.506Z,8.30
2018-03-31T13:17:42.832Z,2.10
2018-03-31T13:20:09.165Z,2.20
2018-03-31T13:22:35.609Z,3.40
2018-03-31T13:25:01.915Z,5.77
2018-03-31T13:27:28.238Z,2.70
2018-03-31T13:29:54.584Z,2.20
2018-03-31T13:32:20.916Z,1.67
2018-03-31T13:34:47.247Z,2.20
2018-03-31T13:37:13.608Z,2.10
2018-03-31T13:39:39.935Z,2.03
2018-03-31T13:42:06.287Z,2.40
2018-03-31T13:44:32.618Z,1.83
2018-03-31T13:46:59.259Z,2.03
2018-03-31T13:49:25.624Z,2.03
2018-03-31T13:51:51.927Z,2.00
2018-03-31T13:54:18.258Z,2.30
2018-03-31T13:56:44.584Z,2.20
2018-03-31T13:59:10.931Z,2.30
2018-03-31T14:01:37.250Z,3.43
2018-03-31T14:04:03.641Z,2.97
2018-03-31T14:06:29.963Z,2.87
2018-03-31T14:08:56.286Z,2.80
2018-03-31T14:11:22.904Z,3.10
2018-03-31T14:13:49.231Z,3.10
2018-03-31T14:16:15.600Z,3.20
2018-03-31T14:18:41.928Z,3.27
2018-03-31T14:21:08.267Z,2.97
2018-03-31T14:23:34.614Z,2.73
2018-03-31T14:26:00.943Z,2.73
2018-03-31T14:28:27.270Z,2.20
2018-03-31T14:30:53.599Z,1.60
2018-03-31T14:33:20.020Z,1.40
2018-03-31T14:35:46.739Z,1.47
2018-03-31T14:38:13.076Z,1.60
2018-03-31T14:40:39.399Z,1.70
2018-03-31T14:43:05.731Z,1.50
2018-03-31T14:45:32.054Z,1.80
2018-03-31T14:47:58.768Z,1.77
2018-03-31T14:50:25.096Z,2.20
2018-03-31T14:52:51.455Z,1.93
2018-03-31T14:55:17.807Z,1.87
2018-03-31T14:57:44.145Z,2.00
2018-03-31T15:00:10.494Z,2.17
2018-03-31T15:02:36.817Z,2.33
2018-03-31T15:05:03.138Z,2.50
2018-03-31T15:07:29.468Z,1.90
2018-03-31T15:09:55.790Z,2.30
2018-03-31T15:12:22.131Z,1.90
2018-03-31T15:14:48.457Z,2.30
2018-03-31T15:17:14.782Z,2.60
2018-03-31T15:19:41.115Z,1.73
2018-03-31T15:22:07.443Z,2.17
2018-03-31T15:24:33.856Z,2.10
2018-03-31T15:27:00.185Z,1.93
2018-03-31T15:29:26.511Z,2.37
2018-03-31T15:31:52.840Z,1.90
2018-03-31T15:34:19.166Z,1.70
2018-03-31T15:36:45.520Z,2.00
2018-03-31T15:39:11.851Z,2.00
2018-03-31T15:41:40.144Z,1.50
2018-03-31T15:44:06.454Z,1.77
2018-03-31T15:46:33.847Z,2.33
2018-03-31T15:49:00.199Z,2.30
2018-03-31T15:51:26.792Z,2.20
2018-03-31T15:53:53.119Z,2.10
2018-03-31T15:59:49.094Z,3.00
2018-03-31T16:02:16.128Z,2.80
2018-03-31T16:04:42.461Z,10.40
2018-03-31T16:07:08.798Z,57.50
2018-03-31T16:09:36.541Z,35.80
2018-03-31T16:12:02.867Z,5.90
2018-03-31T16:14:30.451Z,3.13
2018-03-31T16:16:56.854Z,3.20
2018-03-31T16:19:24.780Z,5.50
2018-03-31T16:21:51.076Z,3.10
2018-03-31T16:24:17.480Z,2.27
2018-03-31T16:26:43.810Z,1.97
2018-03-31T16:29:10.147Z,1.60
2018-03-31T16:31:36.475Z,1.50
2018-03-31T16:34:02.807Z,2.87
2018-03-31T16:36:29.144Z,2.70
2018-03-31T16:38:55.503Z,2.30
2018-03-31T16:41:21.831Z,2.00
2018-03-31T16:43:48.156Z,1.90
2018-03-31T16:46:15.423Z,1.87
2018-03-31T16:48:41.751Z,1.90
2018-03-31T16:51:08.435Z,1.90
2018-03-31T16:53:34.766Z,1.50
2018-03-31T16:56:01.104Z,2.00
2018-03-31T16:58:28.416Z,1.60
2018-03-31T17:00:54.698Z,1.60
2018-03-31T17:03:21.031Z,1.37
2018-03-31T17:05:47.363Z,1.60
2018-03-31T17:08:13.690Z,1.43
2018-03-31T17:10:40.042Z,1.70
2018-03-31T17:13:06.434Z,1.63
2018-03-31T17:15:32.795Z,1.57
2018-03-31T17:17:59.115Z,1.83
2018-03-31T17:20:25.504Z,1.80
2018-03-31T17:22:51.876Z,2.10
2018-03-31T17:25:18.227Z,2.00
2018-03-31T17:27:44.568Z,2.10
2018-03-31T17:30:10.933Z,3.90
2018-03-31T17:32:37.218Z,3.90
2018-03-31T17:35:03.559Z,3.07
2018-03-31T17:37:29.899Z,2.30
2018-03-31T17:39:56.527Z,2.37
2018-03-31T17:42:22.882Z,2.13
2018-03-31T17:44:49.198Z,1.60
2018-03-31T17:47:15.543Z,1.33
2018-03-31T17:49:42.025Z,1.60
2018-03-31T17:52:08.354Z,4.00
2018-03-31T17:54:34.696Z,24.10
2018-03-31T17:57:01.036Z,17.37
2018-03-31T17:59:27.373Z,2.77
2018-03-31T18:01:53.706Z,7.10
2018-03-31T18:04:20.148Z,4.83
2018-03-31T18:06:46.570Z,3.57
2018-03-31T18:09:12.906Z,2.80
2018-03-31T18:11:39.251Z,2.10
2018-03-31T18:14:05.592Z,1.90
2018-03-31T18:16:31.914Z,3.80
2018-03-31T18:18:58.251Z,5.13
2018-03-31T18:21:24.574Z,6.80
2018-03-31T18:23:50.906Z,4.93
2018-03-31T18:26:17.234Z,3.00
2018-03-31T18:28:43.873Z,2.50
2018-03-31T18:31:10.275Z,1.80
2018-03-31T18:33:36.575Z,1.40
2018-03-31T18:36:02.926Z,1.37
2018-03-31T18:38:29.271Z,2.03
2018-03-31T18:40:55.615Z,4.63
2018-03-31T18:43:21.944Z,3.57
2018-03-31T18:45:48.285Z,2.53
2018-03-31T18:48:14.622Z,4.43
2018-03-31T18:50:40.951Z,2.97
2018-03-31T18:53:07.646Z,1.70
2018-03-31T18:55:33.989Z,1.60
2018-03-31T18:58:00.311Z,1.20
2018-03-31T19:00:26.649Z,1.40
2018-03-31T19:02:52.978Z,1.10
2018-03-31T19:05:19.314Z,1.30
2018-03-31T19:07:45.656Z,1.67
2018-03-31T19:10:11.982Z,2.10
2018-03-31T19:12:38.311Z,3.70
2018-03-31T19:15:04.725Z,4.00
2018-03-31T19:17:31.042Z,3.03
2018-03-31T19:19:57.390Z,1.40
2018-03-31T19:22:23.715Z,1.30
2018-03-31T19:24:55.702Z,1.43
2018-03-31T19:27:22.034Z,2.57
2018-03-31T19:29:48.366Z,2.20
2018-03-31T19:32:14.730Z,2.27
2018-03-31T19:34:41.058Z,2.30
2018-03-31T19:37:07.394Z,2.00
2018-03-31T19:39:39.371Z,2.07
2018-03-31T19:42:05.728Z,2.00
2018-03-31T19:44:32.058Z,2.13
2018-03-31T19:46:58.394Z,1.87
2018-03-31T19:49:24.730Z,2.53
2018-03-31T19:51:51.076Z,2.00
2018-03-31T19:54:17.418Z,2.60
2018-03-31T19:56:43.746Z,2.17
2018-03-31T19:59:10.098Z,2.10
2018-03-31T20:01:37.494Z,1.90
2018-03-31T20:04:03.843Z,1.80
2018-03-31T20:06:30.166Z,1.80
2018-03-31T20:08:56.498Z,2.20
2018-03-31T20:11:22.834Z,1.53
2018-03-31T20:13:49.162Z,1.60
2018-03-31T20:16:15.509Z,2.63
2018-03-31T20:18:41.838Z,1.70
2018-03-31T20:21:08.167Z,1.40
2018-03-31T20:23:34.498Z,1.13
2018-03-31T20:26:00.834Z,1.40
2018-03-31T20:28:27.158Z,1.40
2018-03-31T20:30:53.534Z,1.20
2018-03-31T20:33:19.835Z,1.40
2018-03-31T20:35:46.161Z,1.60
2018-03-31T20:38:12.499Z,1.50
2018-03-31T20:40:38.823Z,1.80
2018-03-31T20:43:05.154Z,1.83
2018-03-31T20:45:31.479Z,1.80
2018-03-31T20:47:57.902Z,1.60
2018-03-31T20:50:24.215Z,1.90
2018-03-31T20:52:50.556Z,2.10
2018-03-31T20:55:16.883Z,2.13
2018-03-31T20:57:43.211Z,2.30
2018-03-31T21:00:09.555Z,2.70
2018-03-31T21:02:35.890Z,2.27
2018-03-31T21:05:02.214Z,2.50
2018-03-31T21:07:28.611Z,2.53
2018-03-31T21:09:54.935Z,2.53
2018-03-31T21:12:21.538Z,2.30
2018-03-31T21:14:47.869Z,2.10
2018-03-31T21:17:14.211Z,2.57
2018-03-31T21:19:40.564Z,2.80
2018-03-31T21:22:06.884Z,2.20
2018-03-31T21:24:33.259Z,2.40
2018-03-31T21:26:59.587Z,2.80
2018-03-31T21:29:25.959Z,2.57
2018-03-31T21:31:52.284Z,2.80
2018-03-31T21:34:18.607Z,2.50
2018-03-31T21:36:44.947Z,2.37
2018-03-31T21:39:11.347Z,2.50
2018-03-31T21:41:37.715Z,2.23
2018-03-31T21:44:04.050Z,2.60
2018-03-31T21:46:30.500Z,2.63
2018-03-31T21:48:56.826Z,2.77
2018-03-31T21:51:23.157Z,2.87
2018-03-31T21:53:49.526Z,2.93
2018-03-31T21:56:15.858Z,2.40
2018-03-31T21:58:42.183Z,2.60
2018-03-31T22:01:08.511Z,3.13
2018-03-31T22:03:34.843Z,3.17
2018-03-31T22:06:01.182Z,3.33
2018-03-31T22:08:27.511Z,3.07
2018-03-31T22:10:53.834Z,3.03
2018-03-31T22:13:25.995Z,3.10
2018-03-31T22:15:52.323Z,2.93
2018-03-31T22:18:18.731Z,3.77
2018-03-31T22:20:45.058Z,3.57
2018-03-31T22:23:11.382Z,2.80
2018-03-31T22:25:37.724Z,3.27
2018-03-31T22:28:04.315Z,3.57
2018-03-31T22:30:30.639Z,3.47
2018-03-31T22:32:56.963Z,3.43
2018-03-31T22:35:23.329Z,3.90
2018-03-31T22:37:49.655Z,3.60
2018-03-31T22:40:15.985Z,3.43
2018-03-31T22:42:42.318Z,4.20
2018-03-31T22:45:08.647Z,4.70
2018-03-31T22:47:34.982Z,4.33
2018-03-31T22:50:01.314Z,4.50
2018-03-31T22:52:27.647Z,4.27
2018-03-31T22:54:54.118Z,4.00
2018-03-31T22:57:20.442Z,4.33
2018-03-31T22:59:47.502Z,3.40
2018-03-31T23:02:13.830Z,3.53
2018-03-31T23:04:40.154Z,3.53
2018-03-31T23:07:06.490Z,2.90
2018-03-31T23:09:32.842Z,3.40
2018-03-31T23:11:59.190Z,3.20
2018-03-31T23:14:25.519Z,3.20
2018-03-31T23:16:51.850Z,3.20
2018-03-31T23:19:18.183Z,3.30
2018-03-31T23:21:44.511Z,3.37
2018-03-31T23:24:10.850Z,3.67
2018-03-31T23:26:37.245Z,3.37
2018-03-31T23:29:03.550Z,3.40
2018-03-31T23:31:29.954Z,4.17
2018-03-31T23:33:56.271Z,4.20
2018-03-31T23:36:22.610Z,4.77
2018-03-31T23:38:48.946Z,4.37
2018-03-31T23:41:15.279Z,4.93
2018-03-31T23:43:41.614Z,4.83
2018-03-31T23:46:07.939Z,5.03
2018-03-31T23:48:34.282Z,4.93
2018-03-31T23:51:00.607Z,5.43
2018-03-31T23:53:26.932Z,5.73
2018-03-31T23:55:53.267Z,5.10
2018-03-31T23:58:19.591Z,5.30
